Time;durP1;ratioP1;P1;durP2;ratioP2;P2;SDS_P1;SDS_P2;PMS_P1;PMS_P2;Temp;Humidity;BMP_temperature;BMP_pressure;BME280_temperature;BME280_humidity;BME280_pressure;Samples;Min_cycle;Max_cycle;Signal;HPM_P1;HPM_P2
2024/03/15 00:00:48;;;;;;;9.23;7.70;;;13.30;99.90;;;;;;5119294;27;20039;-61
2024/03/15 00:03:13;;;;;;;7.95;7.00;;;13.30;99.90;;;;;;5111850;27;20123;-62
2024/03/15 00:05:39;;;;;;;10.05;7.38;;;13.20;99.90;;;;;;5114392;27;20122;-62
2024/03/15 00:08:06;;;;;;;9.80;6.88;;;13.20;99.90;;;;;;5118863;27;20054;-62
2024/03/15 00:10:31;;;;;;;11.20;7.40;;;13.20;99.90;;;;;;5121037;27;20047;-61
2024/03/15 00:12:57;;;;;;;12.60;7.80;;;13.10;99.90;;;;;;5121693;27;20035;-61
2024/03/15 00:15:25;;;;;;;11.18;7.93;;;13.10;99.90;;;;;;5120823;27;20409;-62
2024/03/15 00:17:53;;;;;;;10.13;7.95;;;13.10;99.90;;;;;;5117376;27;20114;-62
2024/03/15 00:20:20;;;;;;;11.85;8.00;;;13.10;99.90;;;;;;5117667;27;20099;-61
2024/03/15 00:22:45;;;;;;;10.43;8.02;;;13.10;99.90;;;;;;5121667;27;20428;-62
2024/03/15 00:25:13;;;;;;;9.27;7.60;;;13.00;99.90;;;;;;5121754;27;20553;-62
2024/03/15 00:27:39;;;;;;;8.85;7.43;;;13.00;99.90;;;;;;5117580;27;20039;-62
2024/03/15 00:30:09;;;;;;;9.80;7.60;;;13.00;99.90;;;;;;5121088;27;20050;-62
2024/03/15 00:32:35;;;;;;;10.48;8.48;;;13.00;99.90;;;;;;5118308;27;20042;-62
2024/03/15 00:35:01;;;;;;;10.02;7.93;;;12.90;99.90;;;;;;5119077;27;20174;-62
2024/03/15 00:37:27;;;;;;;11.50;7.55;;;12.90;99.90;;;;;;5123446;27;20528;-62
2024/03/15 00:39:52;;;;;;;14.45;8.05;;;12.90;99.90;;;;;;5119722;27;20524;-62
2024/03/15 00:42:18;;;;;;;8.85;6.85;;;12.80;99.90;;;;;;5118848;27;20035;-62
2024/03/15 00:44:44;;;;;;;10.80;8.18;;;12.80;99.90;;;;;;5119667;27;20045;-62
2024/03/15 00:47:10;;;;;;;8.07;7.25;;;12.80;99.90;;;;;;5121958;27;20050;-62
2024/03/15 00:49:36;;;;;;;10.38;7.55;;;12.80;99.90;;;;;;5121299;27;20039;-61
2024/03/15 00:52:02;;;;;;;9.57;7.82;;;12.80;99.90;;;;;;5116782;27;20040;-62
2024/03/15 00:54:27;;;;;;;10.90;7.97;;;12.80;99.90;;;;;;5122764;27;20459;-61
2024/03/15 00:56:53;;;;;;;9.23;7.03;;;12.80;99.90;;;;;;5116633;27;20115;-62
2024/03/15 00:59:20;;;;;;;10.70;7.35;;;12.80;99.90;;;;;;5116591;27;20128;-62
2024/03/15 01:01:46;;;;;;;9.93;8.23;;;12.70;99.90;;;;;;5110518;27;20047;-61
2024/03/15 01:04:13;;;;;;;10.55;7.95;;;12.70;99.90;;;;;;5115405;27;20031;-61
2024/03/15 01:06:39;;;;;;;11.27;7.85;;;12.70;99.90;;;;;;5115772;27;20150;-61
2024/03/15 01:09:04;;;;;;;8.15;6.80;;;12.70;99.90;;;;;;5116671;27;20087;-62
2024/03/15 01:11:30;;;;;;;10.75;7.93;;;12.80;99.90;;;;;;5113661;27;20038;-60
2024/03/15 01:13:58;;;;;;;10.98;7.75;;;12.70;99.90;;;;;;5116821;27;20039;-61
2024/03/15 01:16:25;;;;;;;11.00;7.43;;;12.70;99.90;;;;;;5117364;27;20449;-60
2024/03/15 01:18:53;;;;;;;10.20;7.80;;;12.80;99.90;;;;;;5122915;27;20121;-61
2024/03/15 01:21:21;;;;;;;9.93;7.50;;;12.70;99.90;;;;;;5113732;27;20059;-62
2024/03/15 01:23:48;;;;;;;8.18;6.97;;;12.70;99.90;;;;;;5115431;27;20502;-61
2024/03/15 01:26:15;;;;;;;9.60;6.70;;;12.70;99.90;;;;;;5120294;27;20092;-62
2024/03/15 01:28:41;;;;;;;9.07;6.80;;;12.70;99.90;;;;;;5114738;27;20078;-61
2024/03/15 01:31:07;;;;;;;8.40;6.88;;;12.80;99.90;;;;;;5113870;27;20305;-61
2024/03/15 01:33:32;;;;;;;8.68;6.75;;;12.70;99.90;;;;;;5115279;27;20043;-63
2024/03/15 01:35:58;;;;;;;8.85;6.38;;;12.70;99.90;;;;;;5118924;27;20031;-62
2024/03/15 01:38:25;;;;;;;7.68;6.88;;;12.80;99.90;;;;;;5117332;27;20236;-61
2024/03/15 01:40:50;;;;;;;10.82;7.15;;;12.80;99.90;;;;;;5116681;27;20047;-62
2024/03/15 01:43:16;;;;;;;9.20;6.68;;;12.70;99.90;;;;;;5117745;27;20034;-62
2024/03/15 01:45:42;;;;;;;9.07;7.10;;;12.80;99.90;;;;;;5117784;27;20032;-61
2024/03/15 01:48:09;;;;;;;10.20;7.22;;;12.80;99.90;;;;;;5114730;27;20581;-61
2024/03/15 01:50:36;;;;;;;8.55;7.40;;;12.80;99.90;;;;;;5105694;27;20131;-62
2024/03/15 01:53:03;;;;;;;9.70;6.93;;;12.80;99.90;;;;;;5113638;27;20068;-62
2024/03/15 01:55:32;;;;;;;9.73;6.65;;;12.80;99.90;;;;;;5113342;27;20099;-62
2024/03/15 01:57:59;;;;;;;12.32;6.43;;;12.80;99.90;;;;;;5113959;27;20518;-62
2024/03/15 02:00:25;;;;;;;10.82;6.90;;;12.80;99.90;;;;;;5116281;27;20039;-62
2024/03/15 02:02:51;;;;;;;10.95;7.40;;;12.90;99.90;;;;;;5117513;27;20096;-61
2024/03/15 02:05:17;;;;;;;6.72;6.03;;;12.80;99.90;;;;;;5111950;27;20040;-60
2024/03/15 02:07:42;;;;;;;8.95;6.80;;;12.90;99.90;;;;;;5111664;27;20035;-61
2024/03/15 02:10:13;;;;;;;9.27;7.20;;;12.80;99.90;;;;;;5118302;27;20460;-61
2024/03/15 02:12:40;;;;;;;8.20;6.55;;;12.80;99.90;;;;;;5113202;27;20039;-62
2024/03/15 02:15:10;;;;;;;8.25;7.05;;;12.80;99.90;;;;;;5114560;27;20043;-60
2024/03/15 02:17:36;;;;;;;8.70;6.60;;;12.70;99.90;;;;;;5110156;27;20051;-62
2024/03/15 02:20:06;;;;;;;13.18;7.93;;;12.80;99.90;;;;;;5111762;27;20029;-62
2024/03/15 02:22:32;;;;;;;8.98;7.15;;;12.80;99.90;;;;;;5114055;27;20044;-61
2024/03/15 02:24:58;;;;;;;10.93;7.45;;;12.70;99.90;;;;;;5118232;27;20038;-61
2024/03/15 02:27:24;;;;;;;11.35;7.35;;;12.70;99.90;;;;;;5125922;27;20047;-61
2024/03/15 02:29:51;;;;;;;10.15;7.40;;;12.70;99.90;;;;;;5115829;27;20389;-61
2024/03/15 02:32:18;;;;;;;11.70;6.72;;;12.60;99.90;;;;;;5124370;27;20043;-61
2024/03/15 02:34:43;;;;;;;11.63;7.07;;;12.60;99.90;;;;;;5117237;27;20066;-61
2024/03/15 02:37:09;;;;;;;11.13;7.10;;;12.60;99.90;;;;;;5120771;27;20039;-61
2024/03/15 02:39:35;;;;;;;10.23;6.55;;;12.60;99.90;;;;;;5116721;27;20034;-61
2024/03/15 02:42:03;;;;;;;9.40;7.35;;;12.70;99.90;;;;;;5112336;27;20387;-60
2024/03/15 02:44:30;;;;;;;8.80;6.43;;;12.60;99.90;;;;;;5112627;27;20043;-61
2024/03/15 02:46:56;;;;;;;13.38;7.45;;;12.70;99.90;;;;;;5116165;27;20364;-61
2024/03/15 02:49:23;;;;;;;11.60;7.32;;;12.70;99.90;;;;;;5105203;27;20039;-60
2024/03/15 02:51:51;;;;;;;11.55;6.57;;;12.70;99.90;;;;;;5120158;27;20058;-62
2024/03/15 02:54:17;;;;;;;10.15;7.10;;;12.70;99.90;;;;;;5110390;27;20043;-61
2024/03/15 02:56:43;;;;;;;8.50;6.93;;;12.70;99.90;;;;;;5111396;27;20047;-61
2024/03/15 02:59:09;;;;;;;9.15;6.95;;;12.70;99.90;;;;;;5114024;27;20112;-61
2024/03/15 03:01:35;;;;;;;12.40;7.57;;;12.70;99.90;;;;;;5114194;28;20619;-61
2024/03/15 03:04:01;;;;;;;12.00;7.93;;;12.80;99.90;;;;;;5117802;27;20639;-60
2024/03/15 03:06:27;;;;;;;12.10;7.45;;;12.70;99.90;;;;;;5113729;27;20035;-61
2024/03/15 03:08:54;;;;;;;9.98;7.20;;;12.70;99.90;;;;;;5113988;28;20112;-61
2024/03/15 03:11:20;;;;;;;13.23;7.20;;;12.80;99.90;;;;;;5113128;28;20047;-61
2024/03/15 03:13:46;;;;;;;10.85;7.60;;;12.80;99.90;;;;;;5115545;28;20134;-62
2024/03/15 03:16:18;;;;;;;14.13;7.35;;;12.80;99.90;;;;;;5116830;27;20091;-62
2024/03/15 03:18:44;;;;;;;10.90;7.90;;;12.80;99.90;;;;;;5111697;28;20052;-61
2024/03/15 03:21:10;;;;;;;10.90;7.78;;;12.80;99.90;;;;;;5120041;27;20039;-61
2024/03/15 03:23:37;;;;;;;13.25;8.10;;;12.70;99.90;;;;;;5118271;28;20112;-60
2024/03/15 03:26:03;;;;;;;11.80;7.97;;;12.80;99.90;;;;;;5115799;27;20067;-62
2024/03/15 03:28:29;;;;;;;12.80;8.48;;;12.80;99.90;;;;;;5118858;27;20042;-61
2024/03/15 03:30:55;;;;;;;11.07;7.88;;;12.70;99.90;;;;;;5111970;27;20561;-62
2024/03/15 03:33:20;;;;;;;12.02;7.75;;;12.60;99.90;;;;;;5110517;27;20043;-61
2024/03/15 03:35:46;;;;;;;12.63;8.57;;;12.60;99.90;;;;;;5118530;27;20054;-61
2024/03/15 03:38:12;;;;;;;9.60;7.47;;;12.70;99.90;;;;;;5115286;27;20103;-61
2024/03/15 03:40:39;;;;;;;13.45;8.38;;;12.60;99.90;;;;;;5115680;28;20114;-61
2024/03/15 03:43:05;;;;;;;13.82;8.57;;;12.60;99.90;;;;;;5114947;28;20035;-61
2024/03/15 03:45:31;;;;;;;14.85;8.40;;;12.50;99.90;;;;;;5113548;27;20036;-62
2024/03/15 03:47:57;;;;;;;8.95;7.75;;;12.60;99.90;;;;;;5115453;28;20581;-63
2024/03/15 03:50:24;;;;;;;15.55;9.10;;;12.50;99.90;;;;;;5115426;28;20082;-61
2024/03/15 03:52:52;;;;;;;15.63;9.00;;;12.50;99.90;;;;;;5114041;28;20100;-61
2024/03/15 03:55:18;;;;;;;11.95;8.35;;;12.50;99.90;;;;;;5114468;27;20932;-62
2024/03/15 03:57:45;;;;;;;11.63;8.85;;;12.50;99.90;;;;;;5114902;28;20566;-62
2024/03/15 04:00:14;;;;;;;14.40;9.13;;;12.50;99.90;;;;;;5103867;27;20042;-61
2024/03/15 04:02:47;;;;;;;11.32;8.38;;;12.50;99.90;;;;;;5117250;27;20089;-61
2024/03/15 04:05:14;;;;;;;11.75;8.50;;;12.50;99.90;;;;;;5117507;27;20046;-61
2024/03/15 04:07:41;;;;;;;13.02;7.78;;;12.50;99.90;;;;;;5119709;27;20046;-61
2024/03/15 04:10:08;;;;;;;13.32;9.10;;;12.50;99.90;;;;;;5120121;27;20396;-61
2024/03/15 04:12:35;;;;;;;13.15;8.77;;;12.50;99.90;;;;;;5114793;27;20042;-61
2024/03/15 04:15:02;;;;;;;15.40;9.20;;;12.50;99.90;;;;;;5123307;27;20046;-61
2024/03/15 04:17:27;;;;;;;13.02;8.68;;;12.50;99.90;;;;;;5123722;27;20096;-61
2024/03/15 04:19:53;;;;;;;12.10;8.50;;;12.50;99.90;;;;;;5121516;27;20039;-61
2024/03/15 04:22:24;;;;;;;13.02;9.45;;;12.40;99.90;;;;;;5114841;27;20498;-61
2024/03/15 04:24:52;;;;;;;11.95;8.95;;;12.50;99.90;;;;;;5114200;27;20039;-62
2024/03/15 04:27:18;;;;;;;12.98;8.90;;;12.40;99.90;;;;;;5115895;27;20193;-61
2024/03/15 04:29:44;;;;;;;14.55;9.20;;;12.40;99.90;;;;;;5120651;27;20043;-61
2024/03/15 04:32:10;;;;;;;12.68;9.65;;;12.40;99.90;;;;;;5117916;27;20058;-62
2024/03/15 04:34:40;;;;;;;12.73;9.25;;;12.40;99.90;;;;;;5121995;27;20027;-62
2024/03/15 04:37:09;;;;;;;13.43;9.20;;;12.50;99.90;;;;;;5123228;27;20039;-61
2024/03/15 04:39:35;;;;;;;;;;;12.50;99.90;;;;;;5123026;27;20681;-61
2024/03/15 04:42:05;;;;;;;15.40;9.35;;;12.50;99.90;;;;;;5120815;27;20311;-61
2024/03/15 04:44:37;;;;;;;16.02;9.90;;;12.40;99.90;;;;;;5112098;27;20504;-62
2024/03/15 04:47:08;;;;;;;14.70;9.80;;;12.50;99.90;;;;;;5114252;27;20065;-61
2024/03/15 04:49:34;;;;;;;14.13;10.10;;;12.40;99.90;;;;;;5113119;27;20576;-62
2024/03/15 04:52:00;;;;;;;16.45;9.63;;;12.40;99.90;;;;;;5124304;27;20050;-61
2024/03/15 04:54:26;;;;;;;15.05;9.73;;;12.50;99.90;;;;;;5120585;27;20076;-61
2024/03/15 04:56:53;;;;;;;15.48;10.48;;;12.50;99.90;;;;;;5117974;27;20046;-62
2024/03/15 04:59:19;;;;;;;15.93;10.80;;;12.40;99.90;;;;;;5118931;27;20042;-61
2024/03/15 05:01:46;;;;;;;15.85;10.52;;;12.30;99.90;;;;;;5118067;27;20047;-61
2024/03/15 05:04:12;;;;;;;15.45;9.98;;;12.40;99.90;;;;;;5116158;27;20087;-60
2024/03/15 05:06:38;;;;;;;18.00;10.13;;;12.30;99.90;;;;;;5113781;27;20032;-59
2024/03/15 05:09:09;;;;;;;13.98;10.85;;;12.40;99.90;;;;;;5115307;27;20058;-61
2024/03/15 05:11:35;;;;;;;14.25;10.00;;;12.30;99.90;;;;;;5118087;27;20039;-61
2024/03/15 05:14:01;;;;;;;12.35;10.48;;;12.30;99.90;;;;;;5117666;27;20040;-61
2024/03/15 05:16:27;;;;;;;17.58;10.88;;;12.20;99.90;;;;;;5120428;27;20038;-61
2024/03/15 05:18:52;;;;;;;12.68;10.60;;;12.30;99.90;;;;;;5120795;27;20418;-62
2024/03/15 05:21:19;;;;;;;13.65;10.88;;;12.30;99.90;;;;;;5116838;27;20350;-61
2024/03/15 05:23:47;;;;;;;19.98;11.13;;;12.30;99.90;;;;;;5117794;27;20051;-61
2024/03/15 05:26:13;;;;;;;20.42;11.48;;;12.30;99.90;;;;;;5114041;27;20042;-60
2024/03/15 05:28:38;;;;;;;16.75;11.68;;;12.30;99.90;;;;;;5111504;27;20039;-61
2024/03/15 05:31:04;;;;;;;18.25;11.93;;;12.20;99.90;;;;;;5117205;27;20043;-61
2024/03/15 05:33:31;;;;;;;16.48;12.23;;;12.30;99.90;;;;;;5115854;27;20089;-62
2024/03/15 05:35:57;;;;;;;14.80;11.88;;;12.20;99.90;;;;;;5122646;27;20043;-62
2024/03/15 05:38:26;;;;;;;14.38;11.15;;;12.20;99.90;;;;;;5120100;27;20699;-61
2024/03/15 05:40:51;;;;;;;18.75;12.98;;;12.20;99.90;;;;;;5114423;27;20027;-62
2024/03/15 05:43:17;;;;;;;15.73;12.25;;;12.30;99.90;;;;;;5111280;27;20034;-63
2024/03/15 05:45:43;;;;;;;20.80;13.05;;;12.20;99.90;;;;;;5117556;27;20061;-63
2024/03/15 05:48:09;;;;;;;17.35;13.60;;;12.20;99.90;;;;;;5115426;27;20059;-62
2024/03/15 05:50:35;;;;;;;16.02;13.07;;;12.40;99.90;;;;;;5118562;27;20027;-62
2024/03/15 05:53:00;;;;;;;19.75;14.15;;;12.30;99.90;;;;;;5120983;27;20506;-62
2024/03/15 05:55:26;;;;;;;23.60;13.85;;;12.40;99.90;;;;;;5113674;27;20075;-62
2024/03/15 05:57:53;;;;;;;23.10;13.77;;;12.40;99.90;;;;;;5114129;27;20096;-62
2024/03/15 06:00:23;;;;;;;20.70;13.63;;;12.30;99.90;;;;;;5119060;27;20030;-60
2024/03/15 06:02:49;;;;;;;18.27;15.18;;;12.40;99.90;;;;;;5116539;27;20042;-62
2024/03/15 06:05:18;;;;;;;20.05;15.13;;;12.40;99.90;;;;;;5112117;27;20501;-62
2024/03/15 06:07:44;;;;;;;20.30;14.98;;;12.40;99.90;;;;;;5096861;27;20085;-61
2024/03/15 06:10:10;;;;;;;17.80;14.05;;;12.50;99.90;;;;;;5118223;27;20047;-61
2024/03/15 06:12:36;;;;;;;22.38;14.68;;;12.50;99.90;;;;;;5113901;27;20479;-62
2024/03/15 06:15:02;;;;;;;22.10;14.90;;;12.40;99.90;;;;;;5114197;27;20089;-62
2024/03/15 06:17:31;;;;;;;21.77;15.82;;;12.50;99.90;;;;;;5116646;27;20085;-62
2024/03/15 06:19:57;;;;;;;19.70;14.77;;;12.60;99.90;;;;;;5111494;27;20409;-62
2024/03/15 06:22:26;;;;;;;21.33;14.77;;;12.40;99.90;;;;;;5112690;27;20031;-61
2024/03/15 06:24:54;;;;;;;18.98;13.93;;;12.40;99.90;;;;;;5116370;27;20039;-62
2024/03/15 06:27:20;;;;;;;19.85;15.73;;;12.60;99.90;;;;;;5118473;27;20412;-62
2024/03/15 06:29:52;;;;;;;18.42;14.45;;;12.60;99.90;;;;;;5123015;27;20070;-62
2024/03/15 06:32:26;;;;;;;17.00;14.23;;;12.50;99.90;;;;;;5124722;27;20056;-62
2024/03/15 06:35:00;;;;;;;20.00;15.15;;;12.50;99.90;;;;;;5124618;27;20058;-62
2024/03/15 06:37:27;;;;;;;19.05;14.68;;;12.50;99.90;;;;;;5123446;27;20598;-62
2024/03/15 06:42:34;;;;;;;20.30;15.57;;;12.60;99.90;;;;;;5126088;27;20170;-61
2024/03/15 06:45:03;;;;;;;19.52;15.25;;;12.60;99.90;;;;;;5124895;27;20285;-62
2024/03/15 06:47:31;;;;;;;19.83;14.10;;;12.50;99.90;;;;;;5125604;27;20043;-62
2024/03/15 06:52:52;;;;;;;21.40;15.23;;;12.70;99.90;;;;;;5106310;27;20429;-62
2024/03/15 06:55:17;;;;;;;21.75;15.60;;;12.60;99.90;;;;;;5125042;27;20487;-62
2024/03/15 06:57:44;;;;;;;17.92;14.80;;;12.70;99.90;;;;;;5126545;27;20510;-62
2024/03/15 07:00:11;;;;;;;24.88;15.10;;;12.60;99.90;;;;;;5121744;27;20039;-63
2024/03/15 07:02:43;;;;;;;19.15;15.20;;;12.60;99.90;;;;;;5121794;27;20043;-62
2024/03/15 07:05:13;;;;;;;16.98;14.63;;;12.60;99.90;;;;;;5125307;27;20115;-62
2024/03/15 07:07:40;;;;;;;23.27;14.77;;;12.70;99.90;;;;;;5120668;27;20768;-62
2024/03/15 07:10:07;;;;;;;21.95;15.82;;;12.60;99.90;;;;;;5123958;27;20552;-62
2024/03/15 07:12:34;;;;;;;20.33;14.60;;;12.60;99.90;;;;;;5126547;27;20522;-62
2024/03/15 07:15:00;;;;;;;18.30;14.65;;;12.70;99.90;;;;;;5124192;27;20047;-62
2024/03/15 07:17:26;;;;;;;21.77;16.27;;;12.80;99.90;;;;;;5123144;27;20087;-61
2024/03/15 07:19:52;;;;;;;25.48;16.50;;;12.70;99.90;;;;;;5114176;27;20058;-62
2024/03/15 07:22:21;;;;;;;19.50;15.82;;;12.70;99.90;;;;;;5124404;27;20066;-62
2024/03/15 07:24:51;;;;;;;20.13;15.57;;;12.90;99.90;;;;;;5117338;27;20460;-62
2024/03/15 07:27:17;;;;;;;19.52;15.77;;;12.80;99.90;;;;;;5121826;27;20050;-62
2024/03/15 07:29:43;;;;;;;19.05;15.02;;;12.90;99.90;;;;;;5124954;27;20031;-61
2024/03/15 07:32:10;;;;;;;21.23;15.70;;;12.90;99.90;;;;;;5124446;27;20813;-62
2024/03/15 07:34:36;;;;;;;18.98;15.02;;;12.90;99.90;;;;;;5123957;27;20298;-62
2024/03/15 07:37:02;;;;;;;17.23;15.43;;;12.90;99.90;;;;;;5123523;27;20175;-62
2024/03/15 07:39:32;;;;;;;20.73;16.23;;;12.90;99.90;;;;;;5128165;27;20117;-62
2024/03/15 07:42:01;;;;;;;18.52;15.55;;;12.90;99.90;;;;;;5129136;27;20043;-62
2024/03/15 07:44:27;;;;;;;;;;;12.90;99.90;;;;;;5118665;27;20039;-62
2024/03/15 07:46:56;;;;;;;21.27;15.15;;;13.00;99.90;;;;;;5117670;27;19977;-62
2024/03/15 07:49:24;;;;;;;17.73;15.15;;;13.00;99.90;;;;;;5121278;27;20070;-62
2024/03/15 07:51:50;;;;;;;19.27;14.48;;;13.10;99.90;;;;;;5119467;27;20035;-61
2024/03/15 07:54:18;;;;;;;18.77;15.15;;;13.00;99.90;;;;;;5115033;27;20027;-62
2024/03/15 07:56:44;;;;;;;19.90;15.15;;;13.10;99.90;;;;;;5124753;27;20165;-62
2024/03/15 07:59:13;;;;;;;19.13;15.90;;;13.20;99.90;;;;;;5124206;27;20521;-62
2024/03/15 08:01:39;;;;;;;19.48;16.05;;;13.00;99.90;;;;;;5121353;27;20051;-62
2024/03/15 08:04:08;;;;;;;18.35;15.73;;;13.10;99.90;;;;;;5127859;27;20042;-49
2024/03/15 08:06:35;;;;;;;18.73;15.30;;;13.20;99.90;;;;;;5128699;27;20091;-61
2024/03/15 08:09:05;;;;;;;17.83;15.30;;;13.10;99.90;;;;;;5128682;27;20501;-62
2024/03/15 08:11:34;;;;;;;18.30;14.48;;;13.30;99.90;;;;;;5130846;27;20038;-62
2024/03/15 08:14:05;;;;;;;17.88;14.80;;;13.20;99.90;;;;;;5123611;27;20038;-62
2024/03/15 08:16:34;;;;;;;17.35;14.43;;;13.30;99.90;;;;;;5130618;27;20042;-62
2024/03/15 08:19:04;;;;;;;22.90;15.27;;;13.30;99.90;;;;;;5125900;27;20099;-62
2024/03/15 08:21:30;;;;;;;19.05;15.05;;;13.30;99.90;;;;;;5127583;27;20076;-62
2024/03/15 08:23:57;;;;;;;18.70;14.57;;;13.40;99.90;;;;;;5126398;27;20558;-62
2024/03/15 08:26:23;;;;;;;18.95;14.48;;;13.30;99.90;;;;;;5127372;27;20114;-60
2024/03/15 08:28:49;;;;;;;17.95;14.02;;;13.40;99.90;;;;;;5127854;27;20123;-62
2024/03/15 08:31:16;;;;;;;17.45;14.25;;;13.40;99.90;;;;;;5126169;27;20047;-62
2024/03/15 08:33:44;;;;;;;20.77;14.07;;;13.30;99.90;;;;;;5127024;27;20506;-62
2024/03/15 08:36:12;;;;;;;18.73;14.07;;;13.30;99.90;;;;;;5125787;27;20547;-62
2024/03/15 08:38:38;;;;;;;16.25;12.52;;;13.40;99.90;;;;;;5128862;27;20290;-62
2024/03/15 08:41:04;;;;;;;18.67;13.13;;;13.30;99.90;;;;;;5128211;27;20497;-62
2024/03/15 08:43:31;;;;;;;16.88;12.68;;;13.40;99.90;;;;;;5127633;27;20429;-62
2024/03/15 08:45:57;;;;;;;17.25;13.48;;;13.40;99.90;;;;;;5126552;27;20422;-61
2024/03/15 08:48:23;;;;;;;16.38;12.23;;;13.40;99.90;;;;;;5127170;27;20480;-62
2024/03/15 08:50:48;;;;;;;17.27;12.77;;;13.30;99.90;;;;;;5124372;27;20466;-62
2024/03/15 08:53:14;;;;;;;15.13;11.80;;;13.20;99.90;;;;;;5126112;27;20038;-62
2024/03/15 08:55:42;;;;;;;15.93;11.18;;;13.30;99.90;;;;;;5126718;27;20363;-62
2024/03/15 08:58:09;;;;;;;14.80;11.63;;;13.10;99.90;;;;;;5127094;27;20116;-62
2024/03/15 09:00:35;;;;;;;15.85;10.88;;;13.20;99.90;;;;;;5127468;27;20039;-61
2024/03/15 09:03:01;;;;;;;16.38;11.23;;;13.10;99.90;;;;;;5127262;27;20151;-62
2024/03/15 09:05:27;;;;;;;13.65;10.15;;;13.10;99.90;;;;;;5126538;27;20493;-61
2024/03/15 09:07:53;;;;;;;16.00;10.10;;;13.20;99.90;;;;;;5123897;27;20035;-62
2024/03/15 09:10:19;;;;;;;15.98;10.27;;;13.10;99.90;;;;;;5128331;27;20039;-62
2024/03/15 09:12:45;;;;;;;14.02;9.35;;;13.20;99.90;;;;;;5128526;27;20121;-62
2024/03/15 09:15:12;;;;;;;14.63;9.50;;;13.10;99.90;;;;;;5126492;27;20500;-62
2024/03/15 09:17:41;;;;;;;13.35;9.60;;;13.20;99.90;;;;;;5125467;27;20079;-62
2024/03/15 09:20:54;;;;;;;12.88;8.85;;;13.10;99.90;;;;;;5126235;27;20389;-62
2024/03/15 09:22:54;;;;;;;12.93;7.68;;;13.20;99.90;;;;;;5114154;27;20157;-62
2024/03/15 09:25:23;;;;;;;11.35;7.65;;;13.20;99.90;;;;;;5127137;27;20454;-62
2024/03/15 09:27:52;;;;;;;10.85;7.28;;;13.30;99.90;;;;;;5128331;27;20984;-62
2024/03/15 09:33:08;;;;;;;12.68;7.38;;;13.50;99.90;;;;;;5124757;27;20095;-62
2024/03/15 09:35:36;;;;;;;11.80;7.15;;;13.70;99.90;;;;;;5127688;27;20122;-62
2024/03/15 09:38:02;;;;;;;10.25;6.38;;;13.80;99.90;;;;;;5127698;27;20039;-62
2024/03/15 09:40:29;;;;;;;11.10;6.32;;;13.90;99.90;;;;;;5124353;27;20039;-62
2024/03/15 09:42:55;;;;;;;14.25;6.70;;;13.90;99.90;;;;;;5128108;27;21032;-62
2024/03/15 09:45:22;;;;;;;15.27;6.22;;;13.90;99.90;;;;;;5123672;27;20145;-61
2024/03/15 09:47:52;;;;;;;13.52;7.22;;;13.90;99.90;;;;;;5126503;27;20062;-62
2024/03/15 09:50:29;;;;;;;15.43;6.47;;;13.70;99.90;;;;;;5126607;27;20074;-62
2024/03/15 09:52:56;;;;;;;14.02;6.00;;;13.60;99.90;;;;;;5124615;27;20793;-62
2024/03/15 09:55:22;;;;;;;11.60;5.38;;;13.60;99.90;;;;;;5123673;27;20554;-62
2024/03/15 09:57:50;;;;;;;15.40;5.75;;;13.60;99.90;;;;;;5124381;27;20038;-63
2024/03/15 10:00:21;;;;;;;14.60;5.63;;;13.50;99.90;;;;;;5124538;27;20701;-61
2024/03/15 10:02:48;;;;;;;14.85;5.88;;;13.50;99.90;;;;;;5124801;27;20047;-61
2024/03/15 10:05:15;;;;;;;12.52;5.53;;;13.50;99.90;;;;;;5123276;27;20042;-61
2024/03/15 10:07:41;;;;;;;12.52;5.60;;;13.50;99.90;;;;;;5125841;27;20043;-62
2024/03/15 10:10:12;;;;;;;19.95;5.55;;;13.40;99.90;;;;;;5123562;27;20045;-62
2024/03/15 10:12:45;;;;;;;16.38;5.22;;;13.50;99.90;;;;;;5107683;27;20082;-62
2024/03/15 10:15:21;;;;;;;14.90;5.00;;;13.40;99.90;;;;;;5121552;27;20077;-63
2024/03/15 10:17:54;;;;;;;17.15;6.22;;;13.50;99.90;;;;;;5122989;27;20047;-61
2024/03/15 10:20:21;;;;;;;16.75;5.45;;;13.50;99.90;;;;;;5123482;27;20265;-61
2024/03/15 10:22:53;;;;;;;10.88;4.75;;;13.60;99.90;;;;;;5118128;27;20220;-62
2024/03/15 10:25:21;;;;;;;9.70;4.53;;;13.60;99.90;;;;;;5123419;27;20573;-62
2024/03/15 10:27:55;;;;;;;10.88;5.10;;;13.60;99.90;;;;;;5125131;27;20046;-60
2024/03/15 10:30:27;;;;;;;15.68;5.18;;;13.60;99.90;;;;;;5116744;27;20042;-61
2024/03/15 10:32:55;;;;;;;12.43;4.82;;;13.70;99.90;;;;;;5117120;27;20069;-61
2024/03/15 10:35:22;;;;;;;11.13;4.05;;;13.70;99.90;;;;;;5126449;27;20179;-60
2024/03/15 10:37:50;;;;;;;13.10;4.50;;;13.80;99.90;;;;;;5120979;27;20126;-61
2024/03/15 10:40:20;;;;;;;12.30;3.87;;;13.90;99.90;;;;;;5119950;27;20678;-61
2024/03/15 10:42:50;;;;;;;9.00;3.17;;;14.00;99.90;;;;;;5121967;27;20562;-61
2024/03/15 10:45:19;;;;;;;12.63;2.70;;;14.10;99.90;;;;;;5126268;27;20070;-61
2024/03/15 10:47:45;;;;;;;;;;;14.20;99.90;;;;;;5124645;27;20088;-61
2024/03/15 10:50:12;;;;;;;12.40;2.83;;;14.30;99.90;;;;;;5121788;27;20010;-62
2024/03/15 10:52:41;;;;;;;11.52;2.72;;;14.30;99.90;;;;;;5124255;27;20034;-60
2024/03/15 10:55:15;;;;;;;11.93;2.95;;;14.40;99.90;;;;;;5125928;27;20239;-63
2024/03/15 10:57:41;;;;;;;13.82;2.83;;;14.40;99.90;;;;;;5121389;27;20185;-60
2024/03/15 11:00:19;;;;;;;7.80;2.53;;;14.40;99.90;;;;;;5124845;27;20031;-61
2024/03/15 11:02:46;;;;;;;8.07;2.53;;;14.50;99.90;;;;;;5121470;27;20692;-63
2024/03/15 11:05:23;;;;;;;9.00;2.72;;;14.40;99.90;;;;;;5126329;27;20340;-62
2024/03/15 11:08:13;;;;;;;10.00;3.17;;;14.60;99.90;;;;;;5123827;27;20043;-61
2024/03/15 11:10:40;;;;;;;11.20;2.90;;;14.50;99.90;;;;;;5125082;27;20042;-61
2024/03/15 11:13:07;;;;;;;15.85;3.03;;;14.50;99.90;;;;;;5127910;27;20039;-62
2024/03/15 11:15:35;;;;;;;9.45;2.33;;;14.60;99.90;;;;;;5127826;27;20066;-61
2024/03/15 11:18:08;;;;;;;12.82;2.78;;;14.60;99.90;;;;;;5127499;27;20090;-61
2024/03/15 11:20:48;;;;;;;10.88;2.40;;;14.60;99.90;;;;;;5123738;27;20463;-62
2024/03/15 11:23:18;;;;;;;11.23;3.00;;;14.60;99.90;;;;;;5122579;27;20059;-62
2024/03/15 11:25:56;;;;;;;11.10;2.15;;;14.70;99.90;;;;;;5128416;27;20070;-61
2024/03/15 11:28:29;;;;;;;10.63;3.28;;;14.80;99.90;;;;;;5127954;27;20421;-62
2024/03/15 11:30:55;;;;;;;11.35;2.90;;;14.90;99.90;;;;;;5115881;27;20039;-62
2024/03/15 11:33:21;;;;;;;15.93;3.80;;;15.00;99.90;;;;;;5120559;27;20603;-61
2024/03/15 11:35:48;;;;;;;13.75;3.05;;;15.10;99.90;;;;;;5124921;27;20047;-62
2024/03/15 11:38:16;;;;;;;14.00;3.20;;;15.20;99.90;;;;;;5126233;27;20127;-62
2024/03/15 11:40:42;;;;;;;11.73;3.20;;;15.30;99.90;;;;;;5125442;27;20058;-62
2024/03/15 11:43:08;;;;;;;19.30;4.30;;;15.40;99.90;;;;;;5129093;27;20495;-64
2024/03/15 11:45:36;;;;;;;12.60;3.45;;;15.40;99.90;;;;;;5125636;27;20925;-62
2024/03/15 11:48:14;;;;;;;12.45;3.38;;;15.30;99.90;;;;;;5126498;27;20075;-61
2024/03/15 11:50:42;;;;;;;11.05;3.58;;;15.30;99.90;;;;;;5126784;27;21440;-61
2024/03/15 11:53:14;;;;;;;14.38;4.03;;;15.20;99.90;;;;;;5123286;27;20141;-62
2024/03/15 11:55:44;;;;;;;15.15;3.75;;;15.20;99.90;;;;;;5122522;27;20038;-61
2024/03/15 11:58:17;;;;;;;12.63;3.90;;;15.20;99.90;;;;;;5124396;27;20031;-62
2024/03/15 12:00:52;;;;;;;12.57;3.63;;;15.20;99.90;;;;;;5121874;27;20114;-62
2024/03/15 12:03:20;;;;;;;13.65;3.20;;;15.30;99.90;;;;;;5128500;27;20488;-62
2024/03/15 12:05:46;;;;;;;14.40;3.33;;;15.30;99.90;;;;;;5126638;27;20070;-61
2024/03/15 12:08:22;;;;;;;14.60;3.20;;;15.50;99.90;;;;;;5128508;27;20843;-61
2024/03/15 12:10:57;;;;;;;11.85;3.42;;;15.50;99.90;;;;;;5129878;27;20051;-62
2024/03/15 12:13:28;;;;;;;10.30;3.15;;;15.50;99.90;;;;;;5126840;27;20133;-62
2024/03/15 12:15:55;;;;;;;15.93;3.55;;;15.40;99.90;;;;;;5130681;27;20081;-60
2024/03/15 12:18:25;;;;;;;11.70;2.90;;;15.40;99.90;;;;;;5128746;27;20128;-62
2024/03/15 12:20:52;;;;;;;19.60;3.45;;;15.20;99.90;;;;;;5128482;27;20521;-63
2024/03/15 12:23:22;;;;;;;11.05;3.60;;;15.20;99.90;;;;;;5129153;27;20035;-62
2024/03/15 12:25:49;;;;;;;16.00;3.63;;;15.10;99.90;;;;;;5131082;27;20084;-62
2024/03/15 12:28:19;;;;;;;15.45;3.78;;;15.10;99.90;;;;;;5129782;27;20053;-62
2024/03/15 12:30:49;;;;;;;12.52;3.72;;;15.10;99.90;;;;;;5126313;27;20588;-63
2024/03/15 12:33:15;;;;;;;15.07;3.53;;;15.20;99.90;;;;;;5126437;27;20170;-62
2024/03/15 12:35:43;;;;;;;10.00;2.97;;;15.20;99.90;;;;;;5126667;27;20402;-62
2024/03/15 12:38:14;;;;;;;10.45;3.00;;;15.20;99.90;;;;;;5127335;27;20035;-62
2024/03/15 12:40:42;;;;;;;11.80;3.88;;;15.20;99.90;;;;;;5128213;27;20530;-62
2024/03/15 12:43:11;;;;;;;11.05;3.95;;;15.20;99.90;;;;;;5125218;27;20155;-61
2024/03/15 12:45:40;;;;;;;15.38;3.58;;;15.20;99.90;;;;;;5120406;27;20114;-61